Time;durP1;ratioP1;P1;durP2;ratioP2;P2;SDS_P1;SDS_P2;PMS_P1;PMS_P2;Temp;Humidity;BMP_temperature;BMP_pressure;BME280_temperature;BME280_humidity;BME280_pressure;Samples;Min_cycle;Max_cycle;Signal;HPM_P1;HPM_P2
2022/11/11 00:02:01;;;;;;;;;;;;;;;;;;1820972;78;39343;-70
2022/11/11 00:04:28;;;;;;;;;;;;;;;;;;1821103;78;25848;-70
2022/11/11 00:06:55;;;;;;;;;;;;;;;;;;1820548;78;33441;-70
2022/11/11 00:09:22;;;;;;;;;;;;;;;;;;1820601;78;29877;-70
2022/11/11 00:11:49;;;;;;;;;;;;;;;;;;1820280;78;37932;-70
2022/11/11 00:14:16;;;;;;;;;;;;;;;;;;1820837;78;24889;-70
2022/11/11 00:25:06;;;;;;;;;;;;;;;;;;1820089;78;81309;-69
2022/11/11 00:27:33;;;;;;;;;;;;;;;;;;1819580;78;27240;-69
2022/11/11 00:30:00;;;;;;;;;;;;;;;;;;1820319;78;80409;-69
2022/11/11 00:32:27;;;;;;;;;;;;;;;;;;1821474;78;22437;-69
2022/11/11 00:37:39;;;;;;;;;;;;;;;;;;1821187;78;22250;-69
2022/11/11 00:40:06;;;;;;;;;;;;;;;;;;1823350;78;22645;-69
2022/11/11 00:42:33;;;;;;;;;;;;;;;;;;1821733;78;29561;-69
2022/11/11 00:44:59;;;;;;;;;;;;;;;;;;1820757;78;25079;-69
2022/11/11 00:52:55;;;;;;;;;;;;;;;;;;1821608;78;22738;-69
2022/11/11 00:55:22;;;;;;;;;;;;;;;;;;1820701;78;22823;-69
2022/11/11 00:57:49;;;;;;;;;;;;;;;;;;1820819;78;34863;-69
2022/11/11 01:00:16;;;;;;;;;;;;;;;;;;1820850;78;91735;-69
2022/11/11 01:02:43;;;;;;;;;;;;;;;;;;1821574;78;22487;-69
2022/11/11 01:05:12;;;;;;;4.80;2.10;;;;;;;;;;1820450;78;30324;-68
2022/11/11 01:07:39;;;;;;;;;;;;;;;;;;1853965;77;26929;-69
2022/11/11 01:10:08;;;;;;;4.20;1.70;;;;;;;;;;1819659;79;28002;-69
2022/11/11 01:12:35;;;;;;;;;;;;;;;;;;1820949;78;26227;-69
2022/11/11 01:15:03;;;;;;;5.45;2.20;;;;;;;;;;1814665;79;33938;-69
2022/11/11 01:17:32;;;;;;;5.35;2.15;;;;;;;;;;1820137;78;28631;-69
2022/11/11 01:20:00;;;;;;;5.15;2.20;;;;;;;;;;1852163;77;26571;-69
2022/11/11 01:22:28;;;;;;;7.07;2.13;;;;;;;;;;1832102;78;25361;-69
2022/11/11 01:24:57;;;;;;;6.40;2.45;;;;;;;;;;1827432;78;49007;-69
2022/11/11 01:27:24;;;;;;;;;;;;;;;;;;1804394;78;22191;-69
2022/11/11 01:29:51;;;;;;;;;;;;;;;;;;1813479;79;68661;-69
2022/11/11 01:32:18;;;;;;;;;;;;;;;;;;1814425;79;45308;-69
2022/11/11 01:34:46;;;;;;;6.10;2.30;;;;;;;;;;1813935;79;53067;-69
2022/11/11 01:37:14;;;;;;;6.60;2.40;;;;;;;;;;1850287;77;41805;-69
2022/11/11 01:39:43;;;;;;;5.33;2.47;;;;;;;;;;1820948;78;25450;-69
2022/11/11 01:42:11;;;;;;;5.95;2.45;;;;;;;;;;1851144;77;26523;-69
2022/11/11 01:44:41;;;;;;;5.15;2.15;;;;;;;;;;1790472;78;24231;-69
2022/11/11 01:47:08;;;;;;;;;;;;;;;;;;1821392;78;24926;-69
2022/11/11 01:49:39;;;;;;;7.60;2.80;;;;;;;;;;1813293;79;29918;-69
2022/11/11 01:52:09;;;;;;;7.10;2.60;;;;;;;;;;1821065;78;31177;-69
2022/11/11 01:54:39;;;;;;;7.40;2.30;;;;;;;;;;1819838;79;26329;-69
2022/11/11 01:57:08;;;;;;;9.30;2.50;;;;;;;;;;1819122;78;62637;-69
2022/11/11 01:59:38;;;;;;;5.63;2.50;;;;;;;;;;1853871;77;23359;-69
2022/11/11 02:02:08;;;;;;;6.40;2.37;;;;;;;;;;1820234;78;26600;-69
2022/11/11 02:07:24;;;;;;;9.60;3.20;;;;;;;;;;1821586;78;26384;-69
2022/11/11 02:09:52;;;;;;;8.07;2.90;;;;;;;;;;1852173;77;26320;-69
2022/11/11 02:15:06;;;;;;;;;;;;;;;;;;1832307;78;28049;-69
2022/11/11 02:17:34;;;;;;;6.07;2.37;;;;;;;;;;1815245;79;26399;-69
2022/11/11 02:20:03;;;;;;;7.20;2.80;;;;;;;;;;1851858;77;26266;-69
2022/11/11 02:22:37;;;;;;;6.80;2.70;;;;;;;;;;1789069;78;26329;-69
2022/11/11 02:25:07;;;;;;;6.30;2.90;;;;;;;;;;1821391;78;32866;-69
2022/11/11 02:27:37;;;;;;;7.13;2.43;;;;;;;;;;1841416;76;26742;-69
2022/11/11 02:30:14;;;;;;;6.37;3.07;;;;;;;;;;1821723;78;26361;-69
2022/11/11 02:32:38;;;;;;;4.57;2.40;;;;;;;;;;1842373;78;25256;-69
2022/11/11 02:35:11;;;;;;;7.95;2.65;;;;;;;;;;1786745;79;27325;-69
2022/11/11 02:37:41;;;;;;;6.45;2.50;;;;;;;;;;1823560;78;26373;-69
2022/11/11 02:40:12;;;;;;;4.35;2.40;;;;;;;;;;1821621;79;26323;-69
2022/11/11 02:42:40;;;;;;;6.33;3.07;;;;;;;;;;1823144;78;32793;-68
2022/11/11 02:45:09;;;;;;;6.15;2.50;;;;;;;;;;1842599;78;24171;-69
2022/11/11 02:47:37;;;;;;;9.90;2.70;;;;;;;;;;1818707;78;33630;-69
2022/11/11 02:50:07;;;;;;;6.90;2.70;;;;;;;;;;1786658;79;26329;-69
2022/11/11 02:52:34;;;;;;;;;;;;;;;;;;1821474;78;26383;-69
2022/11/11 02:55:02;;;;;;;11.25;2.80;;;;;;;;;;1820028;78;24036;-68
2022/11/11 02:57:30;;;;;;;6.15;2.45;;;;;;;;;;1851876;77;23349;-68
2022/11/11 03:00:01;;;;;;;9.80;2.90;;;;;;;;;;1789044;78;27794;-69
2022/11/11 03:02:28;;;;;;;;;;;;;;;;;;1819112;78;26491;-69
2022/11/11 03:04:57;;;;;;;7.00;2.90;;;;;;;;;;1814991;79;26601;-69
2022/11/11 03:07:25;;;;;;;5.80;2.40;;;;;;;;;;1819728;77;26967;-69
2022/11/11 03:09:53;;;;;;;;;;;;;;;;;;1849213;77;78535;-69
2022/11/11 03:12:19;;;;;;;;;;;;;;;;;;1829084;78;25803;-69
2022/11/11 03:14:46;;;;;;;;;;;;;;;;;;1812176;79;57242;-69
2022/11/11 03:23:02;;;;;;;5.75;2.40;;;;;;;;;;1815182;77;26664;-69
2022/11/11 03:25:39;;;;;;;4.30;2.20;;;;;;;;;;1821801;78;26363;-70
2022/11/11 03:28:09;;;;;;;5.20;2.20;;;;;;;;;;1787364;79;26480;-70
2022/11/11 03:30:38;;;;;;;4.70;2.10;;;;;;;;;;1821373;78;26396;-70
2022/11/11 03:33:06;;;;;;;7.40;2.40;;;;;;;;;;1849695;77;57580;-70
2022/11/11 03:35:33;;;;;;;;;;;;;;;;;;1791591;78;24914;-70
2022/11/11 03:38:22;;;;;;;7.95;2.60;;;;;;;;;;1823561;78;26712;-70
2022/11/11 03:40:48;;;;;;;10.50;2.70;;;;;;;;;;1853398;77;27190;-70
2022/11/11 03:43:17;;;;;;;9.90;2.70;;;;;;;;;;1834031;78;26680;-70
2022/11/11 03:45:46;;;;;;;6.40;2.70;;;;;;;;;;1805683;78;23156;-70
2022/11/11 03:48:15;;;;;;;8.77;2.60;;;;;;;;;;1832032;78;27974;-70
2022/11/11 03:50:42;;;;;;;;;;;;;;;;;;1829553;78;56651;-69
2022/11/11 03:53:09;;;;;;;;;;;;;;;;;;1808587;79;98215;-69
2022/11/11 03:55:37;;;;;;;9.85;2.90;;;;;;;;;;1809199;79;69506;-69
2022/11/11 03:58:06;;;;;;;8.40;2.60;;;;;;;;;;1812323;78;51750;-69
2022/11/11 04:00:34;;;;;;;10.10;3.00;;;;;;;;;;1829621;78;61742;-69
2022/11/11 04:11:21;;;;;;;;;;;;;;;;;;1827273;78;58400;-69
2022/11/11 04:16:34;;;;;;;8.70;3.05;;;;;;;;;;1827729;78;96054;-69
2022/11/11 04:21:50;;;;;;;8.03;2.70;;;;;;;;;;1806693;78;26921;-69
2022/11/11 04:27:07;;;;;;;6.80;2.90;;;;;;;;;;1831652;76;26786;-69
2022/11/11 04:29:36;;;;;;;7.27;2.47;;;;;;;;;;1831965;78;26374;-69
2022/11/11 04:34:52;;;;;;;9.33;2.73;;;;;;;;;;1831083;78;26805;-69
2022/11/11 04:37:21;;;;;;;10.77;2.90;;;;;;;;;;1831671;78;26724;-69
2022/11/11 04:42:38;;;;;;;5.17;2.30;;;;;;;;;;1831651;78;26310;-69
2022/11/11 04:47:53;;;;;;;5.13;2.10;;;;;;;;;;1832927;78;26327;-72
2022/11/11 04:50:22;;;;;;;7.70;2.60;;;;;;;;;;1831088;78;54067;-72
2022/11/11 04:52:50;;;;;;;5.70;2.70;;;;;;;;;;1831369;78;26273;-72
2022/11/11 04:58:06;;;;;;;8.47;2.60;;;;;;;;;;1832095;78;26304;-72
2022/11/11 05:00:34;;;;;;;6.17;2.70;;;;;;;;;;1823885;78;611984;-72
2022/11/11 05:03:15;;;;;;;7.60;3.23;;;;;;;;;;1828820;78;26275;-72
2022/11/11 05:11:17;;;;;;;7.93;2.70;;;;;;;;;;1832155;78;26363;-73
2022/11/11 05:22:09;;;;;;;6.90;2.93;;;;;;;;;;1831354;78;26285;-72
2022/11/11 05:27:23;;;;;;;8.33;2.60;;;;;;;;;;1833494;78;27380;-72
2022/11/11 05:29:52;;;;;;;7.67;2.57;;;;;;;;;;1832343;76;26880;-72
2022/11/11 05:32:21;;;;;;;7.07;2.60;;;;;;;;;;1830495;78;81201;-72
2022/11/11 05:34:50;;;;;;;7.15;2.30;;;;;;;;;;1829115;78;102728;-72
2022/11/11 05:37:18;;;;;;;7.63;2.67;;;;;;;;;;1832218;78;26287;-72
2022/11/11 05:39:46;;;;;;;9.40;2.33;;;;;;;;;;1834105;78;26270;-72
2022/11/11 05:42:15;;;;;;;5.77;2.40;;;;;;;;;;1781960;78;26383;-72
2022/11/11 05:44:43;;;;;;;10.23;2.73;;;;;;;;;;1801083;78;26921;-72
2022/11/11 05:47:11;;;;;;;8.73;2.73;;;;;;;;;;1804997;78;26892;-72
2022/11/11 05:49:40;;;;;;;9.63;2.80;;;;;;;;;;1832287;78;26233;-72
2022/11/11 05:52:09;;;;;;;8.53;2.93;;;;;;;;;;1832107;78;27412;-72
2022/11/11 05:54:39;;;;;;;6.73;2.60;;;;;;;;;;1832190;78;26742;-72
2022/11/11 05:57:07;;;;;;;13.43;3.27;;;;;;;;;;1832381;78;24216;-72
2022/11/11 05:59:35;;;;;;;10.53;3.30;;;;;;;;;;1831967;78;26712;-72
2022/11/11 06:02:05;;;;;;;7.77;2.63;;;;;;;;;;1831993;78;26328;-72
2022/11/11 06:04:34;;;;;;;13.40;3.53;;;;;;;;;;1832315;78;26269;-72
2022/11/11 06:07:02;;;;;;;6.60;2.43;;;;;;;;;;1804353;78;26558;-72
2022/11/11 06:09:30;;;;;;;8.13;3.03;;;;;;;;;;1832199;78;26592;-73
2022/11/11 06:11:59;;;;;;;9.30;3.13;;;;;;;;;;1804029;78;26677;-72
2022/11/11 06:14:27;;;;;;;9.80;3.03;;;;;;;;;;1804256;78;26597;-72
2022/11/11 06:16:56;;;;;;;9.73;2.97;;;;;;;;;;1806302;78;26281;-72
2022/11/11 06:19:24;;;;;;;11.33;3.03;;;;;;;;;;1805741;78;26266;-72
2022/11/11 06:22:00;;;;;;;9.40;2.27;;;;;;;;;;1831864;78;26278;-72
2022/11/11 06:24:29;;;;;;;8.57;2.73;;;;;;;;;;1781740;78;26271;-72
2022/11/11 06:26:58;;;;;;;7.75;2.70;;;;;;;;;;1831710;78;26278;-72
2022/11/11 06:29:27;;;;;;;6.23;2.70;;;;;;;;;;1831985;76;26345;-73
2022/11/11 06:31:55;;;;;;;6.70;2.70;;;;;;;;;;1804229;78;26259;-73
2022/11/11 06:34:23;;;;;;;5.27;2.60;;;;;;;;;;1804461;78;26398;-72
2022/11/11 06:36:52;;;;;;;6.87;2.10;;;;;;;;;;1807302;78;26216;-72
2022/11/11 06:39:20;;;;;;;7.67;3.00;;;;;;;;;;1833282;78;26888;-72
2022/11/11 06:41:48;;;;;;;6.50;2.57;;;;;;;;;;1804311;78;26331;-72
2022/11/11 06:44:16;;;;;;;12.30;2.97;;;;;;;;;;1832259;78;26672;-73
2022/11/11 06:46:45;;;;;;;7.27;2.30;;;;;;;;;;1832242;78;26264;-72
2022/11/11 06:49:13;;;;;;;9.57;2.70;;;;;;;;;;1832420;78;26275;-72
2022/11/11 06:51:42;;;;;;;6.70;2.50;;;;;;;;;;1832288;78;26264;-72
2022/11/11 06:54:10;;;;;;;9.20;2.50;;;;;;;;;;1804306;78;26247;-72
2022/11/11 06:56:39;;;;;;;6.03;2.40;;;;;;;;;;1832539;78;26269;-73
2022/11/11 06:59:07;;;;;;;6.93;2.60;;;;;;;;;;1804521;78;26268;-73
2022/11/11 07:01:36;;;;;;;9.47;2.47;;;;;;;;;;1831954;78;26256;-74
2022/11/11 07:04:05;;;;;;;8.53;2.57;;;;;;;;;;1832197;78;26739;-74
2022/11/11 07:06:33;;;;;;;7.00;3.03;;;;;;;;;;1803962;78;26281;-73
2022/11/11 07:09:02;;;;;;;7.70;3.00;;;;;;;;;;1804049;78;26269;-73
2022/11/11 07:11:30;;;;;;;6.40;2.67;;;;;;;;;;1804066;78;26320;-73
2022/11/11 07:13:59;;;;;;;8.97;2.73;;;;;;;;;;1832108;78;26274;-74
2022/11/11 07:16:28;;;;;;;7.40;2.73;;;;;;;;;;1831723;78;26265;-73
2022/11/11 07:18:56;;;;;;;9.00;2.70;;;;;;;;;;1804338;78;24201;-74
2022/11/11 07:21:24;;;;;;;7.50;2.37;;;;;;;;;;1831850;78;24221;-73
2022/11/11 07:23:53;;;;;;;8.27;2.93;;;;;;;;;;1832280;78;26270;-74
2022/11/11 07:26:22;;;;;;;9.40;2.75;;;;;;;;;;1832775;78;26850;-73
2022/11/11 07:28:51;;;;;;;9.07;3.00;;;;;;;;;;1804805;78;26867;-73
2022/11/11 07:31:20;;;;;;;10.87;2.97;;;;;;;;;;1832598;78;26775;-73
2022/11/11 07:33:48;;;;;;;6.27;2.80;;;;;;;;;;1832777;78;26327;-73
2022/11/11 07:36:16;;;;;;;7.50;3.27;;;;;;;;;;1832318;78;27359;-74
2022/11/11 07:38:45;;;;;;;7.90;3.33;;;;;;;;;;1832014;78;26562;-74
2022/11/11 07:41:13;;;;;;;7.40;2.85;;;;;;;;;;1803993;78;26288;-74
2022/11/11 07:43:41;;;;;;;8.70;2.87;;;;;;;;;;1832008;78;24255;-74
2022/11/11 07:46:10;;;;;;;8.33;2.93;;;;;;;;;;1831900;78;26359;-73
2022/11/11 07:48:38;;;;;;;8.57;2.70;;;;;;;;;;1832209;78;26823;-73
2022/11/11 07:51:06;;;;;;;9.27;3.07;;;;;;;;;;1832165;78;26194;-73
2022/11/11 07:53:35;;;;;;;6.17;2.60;;;;;;;;;;1804374;78;26327;-73
2022/11/11 07:56:03;;;;;;;8.83;3.10;;;;;;;;;;1831892;78;26262;-73
2022/11/11 07:58:32;;;;;;;10.77;3.57;;;;;;;;;;1832213;78;26273;-73
2022/11/11 08:01:00;;;;;;;9.07;3.13;;;;;;;;;;1831751;78;24712;-74
2022/11/11 08:03:29;;;;;;;6.23;2.60;;;;;;;;;;1804348;78;26314;-74
2022/11/11 08:05:57;;;;;;;11.60;3.83;;;;;;;;;;1832160;78;26343;-73
2022/11/11 08:08:26;;;;;;;12.03;3.57;;;;;;;;;;1831837;78;26246;-74
2022/11/11 08:10:54;;;;;;;10.40;3.30;;;;;;;;;;1832338;78;24475;-73
2022/11/11 08:13:42;;;;;;;8.90;3.33;;;;;;;;;;1832241;78;26403;-73
2022/11/11 08:16:12;;;;;;;7.80;3.45;;;;;;;;;;1803778;78;27759;-73
2022/11/11 08:18:41;;;;;;;10.90;3.60;;;;;;;;;;1832461;78;26250;-73
2022/11/11 08:21:09;;;;;;;9.85;3.80;;;;;;;;;;1804543;78;26383;-72
2022/11/11 08:23:37;;;;;;;9.80;3.60;;;;;;;;;;1833667;78;23163;-70
2022/11/11 08:26:06;;;;;;;10.35;3.70;;;;;;;;;;1804615;78;26337;-71
2022/11/11 08:28:35;;;;;;;10.80;4.00;;;;;;;;;;1832790;78;25751;-71
2022/11/11 08:31:04;;;;;;;12.17;3.63;;;;;;;;;;1832507;76;27740;-74
2022/11/11 08:33:32;;;;;;;13.83;3.97;;;;;;;;;;1831808;78;26223;-74
2022/11/11 08:36:01;;;;;;;10.50;3.40;;;;;;;;;;1831798;78;26321;-74
2022/11/11 08:38:29;;;;;;;11.40;3.87;;;;;;;;;;1832023;78;26259;-74
2022/11/11 08:41:00;;;;;;;9.17;4.07;;;;;;;;;;1804562;78;26381;-74
2022/11/11 08:43:31;;;;;;;7.43;3.10;;;;;;;;;;1832157;78;26879;-74
2022/11/11 08:45:58;;;;;;;9.73;3.90;;;;;;;;;;1832051;78;26268;-74
2022/11/11 08:48:27;;;;;;;10.17;3.70;;;;;;;;;;1832164;78;25408;-74
2022/11/11 08:50:55;;;;;;;13.20;3.60;;;;;;;;;;1831569;78;26275;-74
2022/11/11 08:53:24;;;;;;;7.17;3.53;;;;;;;;;;1832088;78;26336;-74
2022/11/11 08:55:52;;;;;;;7.00;2.80;;;;;;;;;;1834104;78;26913;-73
2022/11/11 08:58:20;;;;;;;5.70;3.40;;;;;;;;;;1833823;78;26236;-74
2022/11/11 09:00:49;;;;;;;7.70;3.40;;;;;;;;;;1806275;78;27152;-74
2022/11/11 09:03:17;;;;;;;9.73;2.93;;;;;;;;;;1806698;78;26674;-73
2022/11/11 09:05:46;;;;;;;8.70;3.10;;;;;;;;;;1833839;78;26274;-75
2022/11/11 09:08:14;;;;;;;7.90;3.45;;;;;;;;;;1805859;78;26818;-74
2022/11/11 09:10:43;;;;;;;10.55;3.25;;;;;;;;;;1806443;78;27100;-74
2022/11/11 09:13:11;;;;;;;9.45;3.30;;;;;;;;;;1833830;78;26408;-73
2022/11/11 09:15:39;;;;;;;8.53;3.27;;;;;;;;;;1832945;78;24262;-74
2022/11/11 09:18:09;;;;;;;11.37;3.43;;;;;;;;;;1805001;78;24208;-74
2022/11/11 09:20:37;;;;;;;9.17;3.23;;;;;;;;;;1832955;78;26270;-74
2022/11/11 09:23:06;;;;;;;8.27;3.27;;;;;;;;;;1832414;78;26706;-74
2022/11/11 09:25:34;;;;;;;8.60;3.27;;;;;;;;;;1804312;78;25325;-74
2022/11/11 09:28:02;;;;;;;10.53;4.00;;;;;;;;;;1780001;78;26278;-74
2022/11/11 09:30:32;;;;;;;8.83;3.87;;;;;;;;;;1804246;78;24713;-74
2022/11/11 09:33:04;;;;;;;8.63;3.10;;;;;;;;;;1804083;78;26752;-74
2022/11/11 09:35:32;;;;;;;7.73;3.23;;;;;;;;;;1832384;78;24205;-74
2022/11/11 09:38:01;;;;;;;8.87;3.50;;;;;;;;;;1804192;78;26321;-74
2022/11/11 09:40:31;;;;;;;9.20;3.20;;;;;;;;;;1804381;78;26732;-73
2022/11/11 09:43:05;;;;;;;8.53;3.57;;;;;;;;;;1850715;77;24276;-72
2022/11/11 09:45:36;;;;;;;8.30;3.10;;;;;;;;;;1821089;78;24255;-75
2022/11/11 09:48:08;;;;;;;9.57;3.60;;;;;;;;;;1832267;78;26907;-75
2022/11/11 09:50:38;;;;;;;9.33;3.20;;;;;;;;;;1832017;78;26245;-75
2022/11/11 09:53:09;;;;;;;12.23;3.50;;;;;;;;;;1832326;78;27340;-74
2022/11/11 09:55:40;;;;;;;11.30;3.60;;;;;;;;;;1852350;77;26933;-74
2022/11/11 09:58:11;;;;;;;10.67;3.80;;;;;;;;;;1852224;77;26278;-73
2022/11/11 10:00:40;;;;;;;7.17;3.83;;;;;;;;;;1852512;77;26364;-75
2022/11/11 10:03:12;;;;;;;11.87;4.03;;;;;;;;;;1852700;77;26322;-73
2022/11/11 10:05:42;;;;;;;10.73;3.80;;;;;;;;;;1853735;77;26705;-73
2022/11/11 10:08:12;;;;;;;15.27;4.30;;;;;;;;;;1853901;77;24271;-72
2022/11/11 10:10:42;;;;;;;9.87;3.63;;;;;;;;;;1793898;78;24227;-72
2022/11/11 10:13:13;;;;;;;8.30;3.70;;;;;;;;;;1824167;78;24180;-74
2022/11/11 10:15:43;;;;;;;10.57;3.70;;;;;;;;;;1817615;79;24223;-73
2022/11/11 10:18:30;;;;;;;10.93;4.23;;;;;;;;;;1816117;79;24261;-73
2022/11/11 10:20:58;;;;;;;10.23;4.20;;;;;;;;;;1821976;78;24169;-73
2022/11/11 10:23:28;;;;;;;10.80;3.87;;;;;;;;;;1822046;78;24253;-74
2022/11/11 10:25:58;;;;;;;9.33;3.93;;;;;;;;;;1855937;77;24191;-73
2022/11/11 10:28:28;;;;;;;11.17;3.77;;;;;;;;;;1815614;79;26918;-73
2022/11/11 10:30:57;;;;;;;10.67;4.33;;;;;;;;;;1821556;77;26808;-73
2022/11/11 10:33:28;;;;;;;9.67;3.90;;;;;;;;;;1820014;78;26907;-73
2022/11/11 10:35:59;;;;;;;10.90;3.73;;;;;;;;;;1821557;78;26284;-73
2022/11/11 10:38:32;;;;;;;10.77;4.27;;;;;;;;;;1841360;78;24632;-73
2022/11/11 10:41:03;;;;;;;7.70;3.57;;;;;;;;;;1821515;78;26272;-73
2022/11/11 10:43:31;;;;;;;15.07;4.50;;;;;;;;;;1852016;77;26322;-73
2022/11/11 10:46:01;;;;;;;7.60;3.77;;;;;;;;;;1832171;78;24632;-73
2022/11/11 10:48:32;;;;;;;10.05;4.60;;;;;;;;;;1832297;78;25420;-73
2022/11/11 10:51:02;;;;;;;14.23;7.10;;;;;;;;;;1832254;78;24327;-73
2022/11/11 10:53:33;;;;;;;14.23;7.10;;;;;;;;;;1832322;78;24217;-73
2022/11/11 10:56:02;;;;;;;10.57;6.03;;;;;;;;;;1832080;78;24201;-73
2022/11/11 10:58:33;;;;;;;10.77;5.17;;;;;;;;;;1832000;78;24212;-73
2022/11/11 11:01:03;;;;;;;12.13;4.67;;;;;;;;;;1832562;78;24286;-73
2022/11/11 11:03:34;;;;;;;10.83;4.13;;;;;;;;;;1833058;78;26279;-73
2022/11/11 11:06:05;;;;;;;10.03;4.30;;;;;;;;;;1832713;78;24302;-72
2022/11/11 11:08:35;;;;;;;9.60;3.63;;;;;;;;;;1833190;78;24347;-72
2022/11/11 11:11:06;;;;;;;10.17;3.90;;;;;;;;;;1832157;78;24204;-73
2022/11/11 11:13:36;;;;;;;11.37;4.10;;;;;;;;;;1832128;78;26286;-73
2022/11/11 11:16:07;;;;;;;7.00;3.83;;;;;;;;;;1833816;78;24181;-74
2022/11/11 11:18:35;;;;;;;11.30;4.23;;;;;;;;;;1833979;78;24223;-74
2022/11/11 11:21:04;;;;;;;10.40;4.30;;;;;;;;;;1806049;78;25009;-74
2022/11/11 11:23:37;;;;;;;12.27;4.00;;;;;;;;;;1832321;78;26397;-74
2022/11/11 11:26:06;;;;;;;9.03;3.80;;;;;;;;;;1832503;78;24259;-74
2022/11/11 11:28:34;;;;;;;7.17;4.07;;;;;;;;;;1804307;78;24274;-74
2022/11/11 11:31:04;;;;;;;9.17;4.27;;;;;;;;;;1832034;78;24916;-74
2022/11/11 11:33:51;;;;;;;10.60;4.03;;;;;;;;;;1804534;78;24633;-74
2022/11/11 11:36:20;;;;;;;11.07;4.53;;;;;;;;;;1831934;78;24200;-74
2022/11/11 11:38:50;;;;;;;8.53;3.90;;;;;;;;;;1832111;78;24220;-74
2022/11/11 11:41:19;;;;;;;13.00;5.07;;;;;;;;;;1832050;78;24306;-74
2022/11/11 11:43:48;;;;;;;7.27;4.30;;;;;;;;;;1828987;78;26275;-74
2022/11/11 11:46:18;;;;;;;11.87;4.70;;;;;;;;;;1831797;78;26879;-74
2022/11/11 11:48:51;;;;;;;8.70;4.57;;;;;;;;;;1830626;78;24291;-74
2022/11/11 11:51:26;;;;;;;10.23;4.70;;;;;;;;;;1833664;78;24874;-74
2022/11/11 11:54:01;;;;;;;13.80;4.60;;;;;;;;;;1834118;78;24219;-73
2022/11/11 11:56:33;;;;;;;10.30;4.00;;;;;;;;;;1834061;78;24169;-72
2022/11/11 11:59:04;;;;;;;10.90;3.70;;;;;;;;;;1834146;78;24993;-74
2022/11/11 12:01:35;;;;;;;11.83;3.57;;;;;;;;;;1833626;78;24172;-71
2022/11/11 12:04:12;;;;;;;10.37;3.87;;;;;;;;;;1832524;78;26447;-71
2022/11/11 12:06:44;;;;;;;6.33;3.70;;;;;;;;;;1831448;78;24822;-72
2022/11/11 12:09:16;;;;;;;11.00;4.20;;;;;;;;;;1831820;78;24320;-71
2022/11/11 12:11:46;;;;;;;8.90;4.03;;;;;;;;;;1831785;78;27355;-71
2022/11/11 12:14:31;;;;;;;9.47;3.33;;;;;;;;;;1831169;78;24213;-71
2022/11/11 12:17:01;;;;;;;8.60;3.50;;;;;;;;;;1831881;78;24781;-72
2022/11/11 12:19:44;;;;;;;11.07;4.00;;;;;;;;;;1832035;78;24902;-71
2022/11/11 12:22:17;;;;;;;8.93;3.87;;;;;;;;;;1831740;78;24275;-71
2022/11/11 12:24:48;;;;;;;11.40;4.37;;;;;;;;;;1831119;78;24263;-71
2022/11/11 12:27:18;;;;;;;7.60;3.40;;;;;;;;;;1831899;78;24288;-71
2022/11/11 12:29:50;;;;;;;8.30;3.23;;;;;;;;;;1834009;78;24218;-71
2022/11/11 12:32:26;;;;;;;10.33;4.30;;;;;;;;;;1832920;78;26337;-72
2022/11/11 12:35:08;;;;;;;7.87;3.77;;;;;;;;;;1832182;78;24287;-71
2022/11/11 12:37:38;;;;;;;8.87;4.07;;;;;;;;;;1831769;78;25403;-71
2022/11/11 12:40:10;;;;;;;9.15;4.30;;;;;;;;;;1831084;78;24287;-71
2022/11/11 12:42:42;;;;;;;11.65;4.50;;;;;;;;;;1831262;78;24436;-71
2022/11/11 12:45:12;;;;;;;11.83;4.37;;;;;;;;;;1832145;78;24209;-71
2022/11/11 12:47:42;;;;;;;11.50;4.60;;;;;;;;;;1831510;78;24400;-71
2022/11/11 12:50:15;;;;;;;10.20;4.53;;;;;;;;;;1831535;78;24281;-70
2022/11/11 12:52:47;;;;;;;9.63;4.33;;;;;;;;;;1831666;78;24361;-71
2022/11/11 12:55:19;;;;;;;12.43;4.80;;;;;;;;;;1832220;78;24266;-70
2022/11/11 12:57:53;;;;;;;8.77;4.53;;;;;;;;;;1832178;78;24599;-69
2022/11/11 13:00:22;;;;;;;12.20;4.63;;;;;;;;;;1831402;78;27013;-70
2022/11/11 13:03:19;;;;;;;10.90;5.03;;;;;;;;;;1831628;78;26517;-70
2022/11/11 13:05:49;;;;;;;13.57;5.60;;;;;;;;;;1750458;78;25107;-70
2022/11/11 13:08:21;;;;;;;10.37;4.63;;;;;;;;;;1831627;78;26854;-70
2022/11/11 13:10:52;;;;;;;8.77;4.30;;;;;;;;;;1831633;78;24362;-70
2022/11/11 13:13:31;;;;;;;8.40;4.80;;;;;;;;;;1834085;78;24784;-70
2022/11/11 13:15:59;;;;;;;13.30;4.73;;;;;;;;;;1833842;78;24207;-70
2022/11/11 13:18:29;;;;;;;15.27;5.27;;;;;;;;;;1833858;78;26233;-70
2022/11/11 13:20:59;;;;;;;9.50;4.50;;;;;;;;;;1834106;78;24218;-70
2022/11/11 13:23:28;;;;;;;9.13;4.63;;;;;;;;;;1782015;78;26305;-70
2022/11/11 13:25:58;;;;;;;10.20;4.13;;;;;;;;;;1833807;78;24182;-71
2022/11/11 13:28:28;;;;;;;10.97;4.30;;;;;;;;;;1806095;78;24240;-71
2022/11/11 13:31:04;;;;;;;9.73;4.63;;;;;;;;;;1833695;78;24438;-70
2022/11/11 13:33:37;;;;;;;8.20;4.63;;;;;;;;;;1832781;76;24325;-71
2022/11/11 13:36:08;;;;;;;9.23;4.03;;;;;;;;;;1832122;78;24209;-70
2022/11/11 13:38:39;;;;;;;10.90;3.90;;;;;;;;;;1832385;78;24213;-71
2022/11/11 13:41:08;;;;;;;7.83;3.33;;;;;;;;;;1832136;78;24248;-69
2022/11/11 13:43:37;;;;;;;8.33;4.17;;;;;;;;;;1832578;78;24216;-71
2022/11/11 13:46:06;;;;;;;7.33;3.50;;;;;;;;;;1833826;78;26329;-70
2022/11/11 13:48:36;;;;;;;9.10;4.13;;;;;;;;;;1834239;78;24306;-72
2022/11/11 13:51:14;;;;;;;6.23;3.57;;;;;;;;;;1832933;78;24228;-72
2022/11/11 13:53:42;;;;;;;8.50;3.90;;;;;;;;;;1832278;78;24676;-72
2022/11/11 13:56:11;;;;;;;6.60;3.83;;;;;;;;;;1832105;78;24271;-72
2022/11/11 13:58:41;;;;;;;8.57;3.57;;;;;;;;;;1832604;78;24318;-72
2022/11/11 14:01:11;;;;;;;8.27;3.60;;;;;;;;;;1832032;78;24879;-72
2022/11/11 14:03:59;;;;;;;8.03;3.43;;;;;;;;;;1832294;78;24897;-72
2022/11/11 14:06:35;;;;;;;8.10;3.80;;;;;;;;;;1831882;78;24204;-72
2022/11/11 14:09:02;;;;;;;;;;;;;;;;;;1804017;78;24189;-72
2022/11/11 14:11:29;;;;;;;;;;;;;;;;;;1832935;78;24280;-72
2022/11/11 14:13:59;;;;;;;8.80;5.23;;;;;;;;;;1815346;79;24473;-72
2022/11/11 14:16:45;;;;;;;8.07;4.30;;;;;;;;;;1851776;77;24208;-73
2022/11/11 14:19:29;;;;;;;7.03;3.97;;;;;;;;;;1832173;78;26831;-72
2022/11/11 14:21:58;;;;;;;6.37;3.10;;;;;;;;;;1832026;78;25249;-73
2022/11/11 14:24:28;;;;;;;8.37;4.00;;;;;;;;;;1831928;78;26977;-73
2022/11/11 14:26:57;;;;;;;7.37;3.53;;;;;;;;;;1832395;78;24224;-73
2022/11/11 14:29:27;;;;;;;7.93;3.60;;;;;;;;;;1832555;78;24204;-73
2022/11/11 14:32:08;;;;;;;8.73;4.07;;;;;;;;;;1832210;76;24271;-73
2022/11/11 14:34:36;;;;;;;;;;;;;;;;;;1832830;78;24310;-74
2022/11/11 14:37:02;;;;;;;;;;;;;;;;;;1833022;78;21991;-73
2022/11/11 14:39:42;;;;;;;7.50;3.57;;;;;;;;;;1817800;79;23718;-73
2022/11/11 14:42:29;;;;;;;7.23;3.97;;;;;;;;;;1853416;77;24245;-74
2022/11/11 14:44:57;;;;;;;8.67;3.73;;;;;;;;;;1832698;78;24744;-73
2022/11/11 14:47:28;;;;;;;9.43;3.80;;;;;;;;;;1832120;78;26306;-73
2022/11/11 14:49:58;;;;;;;7.93;3.73;;;;;;;;;;1832150;78;24212;-73
2022/11/11 14:52:29;;;;;;;7.97;3.60;;;;;;;;;;1834020;78;24181;-73
2022/11/11 14:55:05;;;;;;;6.50;3.50;;;;;;;;;;1833906;78;24153;-73
2022/11/11 14:57:34;;;;;;;7.77;3.47;;;;;;;;;;1834057;78;27065;-73
2022/11/11 15:00:04;;;;;;;5.67;3.07;;;;;;;;;;1834280;78;24157;-73
2022/11/11 15:02:34;;;;;;;4.10;2.90;;;;;;;;;;1833862;78;24169;-73
2022/11/11 15:05:04;;;;;;;5.63;3.47;;;;;;;;;;1833942;78;24571;-73
2022/11/11 15:07:35;;;;;;;6.27;3.40;;;;;;;;;;1834006;78;24184;-72
2022/11/11 15:10:31;;;;;;;5.23;3.37;;;;;;;;;;1805915;78;24178;-73
2022/11/11 15:13:06;;;;;;;7.73;3.60;;;;;;;;;;1804085;78;24183;-73
2022/11/11 15:15:36;;;;;;;7.33;4.23;;;;;;;;;;1823152;77;24114;-72
2022/11/11 15:18:07;;;;;;;5.70;3.20;;;;;;;;;;1823340;78;24637;-73
2022/11/11 15:20:48;;;;;;;5.77;3.60;;;;;;;;;;1822795;78;24279;-73
2022/11/11 15:23:19;;;;;;;4.37;3.63;;;;;;;;;;1834184;78;24157;-73
2022/11/11 15:25:50;;;;;;;7.00;3.53;;;;;;;;;;1833171;78;24157;-73
2022/11/11 15:28:22;;;;;;;5.90;3.57;;;;;;;;;;1805958;78;24132;-73
2022/11/11 15:30:53;;;;;;;6.40;3.63;;;;;;;;;;1831301;78;24166;-72
2022/11/11 15:33:23;;;;;;;8.07;4.13;;;;;;;;;;1834111;76;24184;-73
2022/11/11 15:35:54;;;;;;;7.00;3.90;;;;;;;;;;1831999;78;26303;-71
2022/11/11 15:38:23;;;;;;;8.87;3.50;;;;;;;;;;1832783;78;24226;-72
2022/11/11 15:40:53;;;;;;;10.77;4.10;;;;;;;;;;1832097;78;24627;-71
2022/11/11 15:43:23;;;;;;;6.20;3.73;;;;;;;;;;1832036;78;24191;-72
2022/11/11 15:45:53;;;;;;;7.67;3.43;;;;;;;;;;1831942;78;24255;-72
2022/11/11 15:48:22;;;;;;;6.67;3.60;;;;;;;;;;1832185;78;24235;-71
2022/11/11 15:50:51;;;;;;;5.37;3.40;;;;;;;;;;1831772;78;24212;-70
2022/11/11 15:53:22;;;;;;;6.33;3.60;;;;;;;;;;1804243;78;24201;-70
2022/11/11 15:55:55;;;;;;;6.43;3.80;;;;;;;;;;1831714;78;26282;-70
2022/11/11 15:58:27;;;;;;;5.60;3.47;;;;;;;;;;1832175;78;25369;-70
2022/11/11 16:00:57;;;;;;;7.37;3.97;;;;;;;;;;1804065;78;26585;-70
2022/11/11 16:03:27;;;;;;;6.70;3.33;;;;;;;;;;1804611;78;24240;-70
2022/11/11 16:05:55;;;;;;;7.27;3.87;;;;;;;;;;1831526;78;27011;-70
2022/11/11 16:08:24;;;;;;;5.50;3.27;;;;;;;;;;1831954;78;26938;-70
2022/11/11 16:10:57;;;;;;;6.80;3.50;;;;;;;;;;1832153;78;24341;-70
2022/11/11 16:13:26;;;;;;;5.17;3.40;;;;;;;;;;1831983;78;24483;-70
2022/11/11 16:15:56;;;;;;;6.90;2.87;;;;;;;;;;1831810;78;26367;-70
2022/11/11 16:18:26;;;;;;;6.03;3.37;;;;;;;;;;1803962;78;26520;-70
2022/11/11 16:20:56;;;;;;;7.97;3.13;;;;;;;;;;1832267;78;24292;-71